Honomu, Hawaii
Current Conditions -  °F | °C
As of 4:53 PM on Tuesday 21 Oct 2014 (Local Time) from PHTO Reporting Station
Clear Clear  
Wind Chill: 82°   Ceiling: Unl
Heat Index: 86°   Visibility: 10mi
Dew Point: 71°   Wind: 12mph
Humidity: 69%   Direction: 130°SE
Pressure: 29.95"   Gusts: NA
Location:  19.87°N, 155.1°W
Report Text: PHTO 220253Z 13010KT 10SM CLR 28/22 A2995 RMK AO2 SLP140 T02780217 53001
Loading
Personal Weather Stations






























Interactive Weather Map
Tropical Storm Tracking
New forecast layout! Learn more

10-Day Weather Forecast

Advertisements
Track Severe Weather on mobile